sensor_id;sensor_type;location;lat;lon;timestamp;P1;durP1;ratioP1;P2;durP2;ratioP2
22070;SDS011;11200;51.488;6.668;2023-02-27T04:50:36;3.72;;;1.90;;
22070;SDS011;11200;51.488;6.668;2023-02-27T04:53:08;2.85;;;2.03;;
22070;SDS011;11200;51.488;6.668;2023-02-27T04:55:42;3.80;;;2.03;;
22070;SDS011;11200;51.488;6.668;2023-02-27T04:58:20;2.65;;;1.80;;
22070;SDS011;11200;51.488;6.668;2023-02-27T05:00:51;3.40;;;1.90;;
22070;SDS011;11200;51.488;6.668;2023-02-27T05:03:23;3.47;;;2.10;;
22070;SDS011;11200;51.488;6.668;2023-02-27T05:05:53;2.72;;;2.33;;
22070;SDS011;11200;51.488;6.668;2023-02-27T05:11:05;3.80;;;2.15;;
22070;SDS011;11200;51.488;6.668;2023-02-27T05:13:50;2.97;;;2.03;;
22070;SDS011;11200;51.488;6.668;2023-02-27T05:19:20;3.75;;;2.17;;
22070;SDS011;11200;51.488;6.668;2023-02-27T05:27:03;2.60;;;2.10;;
22070;SDS011;11200;51.488;6.668;2023-02-27T05:29:49;4.15;;;2.20;;
22070;SDS011;11200;51.488;6.668;2023-02-27T05:32:21;3.75;;;2.47;;
22070;SDS011;11200;51.488;6.668;2023-02-27T05:40:24;2.72;;;2.28;;
22070;SDS011;11200;51.488;6.668;2023-02-27T05:45:27;2.90;;;2.40;;
22070;SDS011;11200;51.488;6.668;2023-02-27T05:47:57;2.00;;;1.80;;
22070;SDS011;11200;51.488;6.668;2023-02-27T05:50:28;4.03;;;2.10;;
22070;SDS011;11200;51.488;6.668;2023-02-27T05:52:57;3.78;;;2.50;;
22070;SDS011;11200;51.488;6.668;2023-02-27T05:55:32;3.75;;;2.40;;
22070;SDS011;11200;51.488;6.668;2023-02-27T06:01:04;3.03;;;2.20;;
22070;SDS011;11200;51.488;6.668;2023-02-27T06:03:32;2.58;;;2.15;;
22070;SDS011;11200;51.488;6.668;2023-02-27T06:06:00;3.30;;;2.05;;
22070;SDS011;11200;51.488;6.668;2023-02-27T06:08:28;2.92;;;2.22;;
22070;SDS011;11200;51.488;6.668;2023-02-27T06:10:53;2.60;;;2.17;;
22070;SDS011;11200;51.488;6.668;2023-02-27T06:13:19;4.22;;;2.33;;
22070;SDS011;11200;51.488;6.668;2023-02-27T06:15:46;3.13;;;2.15;;
22070;SDS011;11200;51.488;6.668;2023-02-27T06:18:13;2.90;;;2.40;;
22070;SDS011;11200;51.488;6.668;2023-02-27T06:20:39;4.57;;;2.70;;
22070;SDS011;11200;51.488;6.668;2023-02-27T06:23:06;3.20;;;2.40;;
22070;SDS011;11200;51.488;6.668;2023-02-27T06:25:32;3.38;;;2.53;;
22070;SDS011;11200;51.488;6.668;2023-02-27T06:27:58;3.22;;;2.30;;
22070;SDS011;11200;51.488;6.668;2023-02-27T06:30:24;3.47;;;2.45;;
22070;SDS011;11200;51.488;6.668;2023-02-27T06:32:49;3.55;;;2.22;;
22070;SDS011;11200;51.488;6.668;2023-02-27T06:35:15;3.08;;;2.50;;
22070;SDS011;11200;51.488;6.668;2023-02-27T06:37:41;3.30;;;2.35;;
22070;SDS011;11200;51.488;6.668;2023-02-27T06:40:07;3.55;;;2.35;;
22070;SDS011;11200;51.488;6.668;2023-02-27T06:42:39;3.75;;;2.50;;
22070;SDS011;11200;51.488;6.668;2023-02-27T06:45:06;3.70;;;2.13;;
22070;SDS011;11200;51.488;6.668;2023-02-27T06:47:33;3.50;;;2.60;;
22070;SDS011;11200;51.488;6.668;2023-02-27T06:49:58;3.17;;;2.03;;
22070;SDS011;11200;51.488;6.668;2023-02-27T06:52:25;3.88;;;2.42;;
22070;SDS011;11200;51.488;6.668;2023-02-27T06:54:51;2.95;;;2.50;;
22070;SDS011;11200;51.488;6.668;2023-02-27T06:57:17;2.75;;;2.40;;
22070;SDS011;11200;51.488;6.668;2023-02-27T06:59:42;4.60;;;2.40;;
22070;SDS011;11200;51.488;6.668;2023-02-27T07:02:12;2.85;;;2.15;;
22070;SDS011;11200;51.488;6.668;2023-02-27T07:04:38;3.17;;;2.50;;
22070;SDS011;11200;51.488;6.668;2023-02-27T07:07:04;4.32;;;2.50;;
22070;SDS011;11200;51.488;6.668;2023-02-27T07:09:30;3.92;;;2.60;;
22070;SDS011;11200;51.488;6.668;2023-02-27T07:11:56;4.05;;;2.55;;
22070;SDS011;11200;51.488;6.668;2023-02-27T07:14:21;4.25;;;2.35;;
22070;SDS011;11200;51.488;6.668;2023-02-27T07:16:47;2.42;;;2.20;;
22070;SDS011;11200;51.488;6.668;2023-02-27T07:19:17;3.08;;;2.45;;
22070;SDS011;11200;51.488;6.668;2023-02-27T07:21:44;2.50;;;2.20;;
22070;SDS011;11200;51.488;6.668;2023-02-27T07:24:09;3.15;;;2.20;;
22070;SDS011;11200;51.488;6.668;2023-02-27T07:26:35;2.63;;;2.42;;
22070;SDS011;11200;51.488;6.668;2023-02-27T07:29:01;2.97;;;2.60;;
22070;SDS011;11200;51.488;6.668;2023-02-27T07:31:27;3.33;;;2.38;;
22070;SDS011;11200;51.488;6.668;2023-02-27T07:33:53;2.85;;;2.28;;
22070;SDS011;11200;51.488;6.668;2023-02-27T07:36:19;2.55;;;2.33;;
22070;SDS011;11200;51.488;6.668;2023-02-27T07:38:44;3.15;;;2.47;;
22070;SDS011;11200;51.488;6.668;2023-02-27T07:41:10;4.40;;;2.80;;
22070;SDS011;11200;51.488;6.668;2023-02-27T07:43:38;4.78;;;2.88;;
22070;SDS011;11200;51.488;6.668;2023-02-27T07:46:04;3.50;;;2.53;;
22070;SDS011;11200;51.488;6.668;2023-02-27T07:48:30;2.80;;;2.53;;
22070;SDS011;11200;51.488;6.668;2023-02-27T07:50:56;3.22;;;2.45;;
22070;SDS011;11200;51.488;6.668;2023-02-27T07:53:22;3.05;;;2.38;;
22070;SDS011;11200;51.488;6.668;2023-02-27T07:55:48;3.17;;;2.35;;
22070;SDS011;11200;51.488;6.668;2023-02-27T07:58:14;5.15;;;2.67;;
22070;SDS011;11200;51.488;6.668;2023-02-27T08:00:39;3.55;;;2.70;;
22070;SDS011;11200;51.488;6.668;2023-02-27T08:03:05;3.72;;;2.47;;
22070;SDS011;11200;51.488;6.668;2023-02-27T08:05:31;3.85;;;2.92;;
22070;SDS011;11200;51.488;6.668;2023-02-27T08:07:56;3.13;;;2.40;;
22070;SDS011;11200;51.488;6.668;2023-02-27T08:10:22;3.05;;;2.35;;
22070;SDS011;11200;51.488;6.668;2023-02-27T08:12:49;3.85;;;2.60;;
22070;SDS011;11200;51.488;6.668;2023-02-27T08:15:14;4.40;;;2.88;;
22070;SDS011;11200;51.488;6.668;2023-02-27T08:17:41;4.65;;;3.10;;
22070;SDS011;11200;51.488;6.668;2023-02-27T08:20:08;2.80;;;2.45;;
22070;SDS011;11200;51.488;6.668;2023-02-27T08:22:35;3.38;;;2.60;;
22070;SDS011;11200;51.488;6.668;2023-02-27T08:25:02;3.75;;;2.95;;
22070;SDS011;11200;51.488;6.668;2023-02-27T08:27:30;3.30;;;2.40;;
22070;SDS011;11200;51.488;6.668;2023-02-27T08:29:56;4.07;;;2.83;;
22070;SDS011;11200;51.488;6.668;2023-02-27T08:32:22;3.30;;;2.63;;
22070;SDS011;11200;51.488;6.668;2023-02-27T08:34:48;3.85;;;2.70;;
22070;SDS011;11200;51.488;6.668;2023-02-27T08:37:13;3.85;;;2.90;;
22070;SDS011;11200;51.488;6.668;2023-02-27T08:39:39;3.38;;;2.30;;
22070;SDS011;11200;51.488;6.668;2023-02-27T08:42:04;4.82;;;2.70;;
22070;SDS011;11200;51.488;6.668;2023-02-27T08:44:31;8.63;;;3.00;;
22070;SDS011;11200;51.488;6.668;2023-02-27T08:46:57;4.50;;;3.10;;
22070;SDS011;11200;51.488;6.668;2023-02-27T08:49:22;4.30;;;2.88;;
22070;SDS011;11200;51.488;6.668;2023-02-27T08:51:49;5.18;;;3.00;;
22070;SDS011;11200;51.488;6.668;2023-02-27T08:54:15;3.85;;;3.05;;
22070;SDS011;11200;51.488;6.668;2023-02-27T08:56:42;3.10;;;2.63;;
22070;SDS011;11200;51.488;6.668;2023-02-27T08:59:08;4.45;;;3.00;;
22070;SDS011;11200;51.488;6.668;2023-02-27T09:01:34;7.78;;;3.00;;
22070;SDS011;11200;51.488;6.668;2023-02-27T09:04:03;3.92;;;2.85;;
22070;SDS011;11200;51.488;6.668;2023-02-27T09:06:29;3.38;;;2.83;;
22070;SDS011;11200;51.488;6.668;2023-02-27T09:08:58;3.53;;;2.30;;
22070;SDS011;11200;51.488;6.668;2023-02-27T09:11:24;3.80;;;2.92;;
22070;SDS011;11200;51.488;6.668;2023-02-27T09:13:51;4.15;;;2.70;;
22070;SDS011;11200;51.488;6.668;2023-02-27T09:16:18;3.33;;;2.70;;
22070;SDS011;11200;51.488;6.668;2023-02-27T09:18:44;3.38;;;2.65;;
22070;SDS011;11200;51.488;6.668;2023-02-27T09:21:11;4.30;;;2.92;;
22070;SDS011;11200;51.488;6.668;2023-02-27T09:23:36;4.65;;;2.60;;
22070;SDS011;11200;51.488;6.668;2023-02-27T09:26:02;3.75;;;2.75;;
22070;SDS011;11200;51.488;6.668;2023-02-27T09:28:29;4.05;;;2.60;;
22070;SDS011;11200;51.488;6.668;2023-02-27T09:30:56;3.03;;;2.60;;
22070;SDS011;11200;51.488;6.668;2023-02-27T09:33:25;5.65;;;3.00;;
22070;SDS011;11200;51.488;6.668;2023-02-27T09:35:52;4.22;;;2.33;;
22070;SDS011;11200;51.488;6.668;2023-02-27T09:38:18;3.00;;;2.33;;
22070;SDS011;11200;51.488;6.668;2023-02-27T09:40:44;5.50;;;2.90;;
22070;SDS011;11200;51.488;6.668;2023-02-27T09:43:17;3.08;;;2.38;;
22070;SDS011;11200;51.488;6.668;2023-02-27T09:45:48;4.22;;;2.67;;
22070;SDS011;11200;51.488;6.668;2023-02-27T09:48:28;3.63;;;2.40;;
22070;SDS011;11200;51.488;6.668;2023-02-27T09:50:56;2.97;;;2.50;;
22070;SDS011;11200;51.488;6.668;2023-02-27T09:53:27;4.40;;;2.38;;
22070;SDS011;11200;51.488;6.668;2023-02-27T10:04:52;2.95;;;2.30;;
22070;SDS011;11200;51.488;6.668;2023-02-27T10:07:12;2.92;;;2.10;;
22070;SDS011;11200;51.488;6.668;2023-02-27T10:09:53;3.03;;;2.17;;
22070;SDS011;11200;51.488;6.668;2023-02-27T10:12:33;4.00;;;2.00;;
22070;SDS011;11200;51.488;6.668;2023-02-27T10:15:10;3.63;;;1.80;;
22070;SDS011;11200;51.488;6.668;2023-02-27T10:17:49;3.35;;;1.92;;
22070;SDS011;11200;51.488;6.668;2023-02-27T10:20:32;3.78;;;2.00;;
22070;SDS011;11200;51.488;6.668;2023-02-27T10:23:06;2.95;;;1.88;;
22070;SDS011;11200;51.488;6.668;2023-02-27T10:25:43;3.50;;;1.75;;
22070;SDS011;11200;51.488;6.668;2023-02-27T10:28:13;2.80;;;1.77;;
22070;SDS011;11200;51.488;6.668;2023-02-27T10:30:41;4.03;;;2.08;;
22070;SDS011;11200;51.488;6.668;2023-02-27T10:36:02;2.17;;;1.60;;
22070;SDS011;11200;51.488;6.668;2023-02-27T10:38:36;2.42;;;1.48;;
22070;SDS011;11200;51.488;6.668;2023-02-27T10:41:12;2.90;;;1.58;;
22070;SDS011;11200;51.488;6.668;2023-02-27T10:43:39;2.65;;;1.73;;
22070;SDS011;11200;51.488;6.668;2023-02-27T10:46:10;3.35;;;1.60;;
22070;SDS011;11200;51.488;6.668;2023-02-27T10:48:38;2.25;;;1.85;;
22070;SDS011;11200;51.488;6.668;2023-02-27T10:53:48;3.28;;;1.63;;
22070;SDS011;11200;51.488;6.668;2023-02-27T10:56:23;2.65;;;1.50;;
22070;SDS011;11200;51.488;6.668;2023-02-27T10:59:01;2.67;;;1.30;;
22070;SDS011;11200;51.488;6.668;2023-02-27T11:01:49;3.38;;;1.70;;
22070;SDS011;11200;51.488;6.668;2023-02-27T11:04:39;2.45;;;1.45;;
22070;SDS011;11200;51.488;6.668;2023-02-27T11:07:11;2.95;;;1.70;;
22070;SDS011;11200;51.488;6.668;2023-02-27T11:09:39;2.35;;;1.65;;
22070;SDS011;11200;51.488;6.668;2023-02-27T11:12:19;2.80;;;1.60;;
22070;SDS011;11200;51.488;6.668;2023-02-27T11:14:52;2.60;;;1.45;;
22070;SDS011;11200;51.488;6.668;2023-02-27T11:17:44;3.17;;;1.58;;
22070;SDS011;11200;51.488;6.668;2023-02-27T11:20:43;2.95;;;1.50;;
22070;SDS011;11200;51.488;6.668;2023-02-27T11:26:09;3.38;;;1.80;;
22070;SDS011;11200;51.488;6.668;2023-02-27T11:28:40;3.60;;;1.40;;
22070;SDS011;11200;51.488;6.668;2023-02-27T11:31:13;3.92;;;1.40;;
22070;SDS011;11200;51.488;6.668;2023-02-27T11:34:01;1.75;;;1.30;;
22070;SDS011;11200;51.488;6.668;2023-02-27T11:36:44;3.67;;;1.52;;
22070;SDS011;11200;51.488;6.668;2023-02-27T11:40:14;2.70;;;1.40;;
22070;SDS011;11200;51.488;6.668;2023-02-27T11:42:49;2.33;;;1.13;;
22070;SDS011;11200;51.488;6.668;2023-02-27T11:48:34;3.17;;;1.48;;
22070;SDS011;11200;51.488;6.668;2023-02-27T11:56:43;3.53;;;1.65;;
22070;SDS011;11200;51.488;6.668;2023-02-27T11:59:19;2.50;;;1.70;;
22070;SDS011;11200;51.488;6.668;2023-02-27T12:02:02;3.63;;;1.67;;
22070;SDS011;11200;51.488;6.668;2023-02-27T12:07:33;2.22;;;1.50;;
22070;SDS011;11200;51.488;6.668;2023-02-27T12:15:19;3.45;;;1.63;;
22070;SDS011;11200;51.488;6.668;2023-02-27T12:18:37;2.65;;;1.50;;
22070;SDS011;11200;51.488;6.668;2023-02-27T12:20:53;3.92;;;1.98;;
22070;SDS011;11200;51.488;6.668;2023-02-27T12:26:13;4.22;;;1.60;;
22070;SDS011;11200;51.488;6.668;2023-02-27T12:28:55;2.00;;;1.48;;
22070;SDS011;11200;51.488;6.668;2023-02-27T12:36:28;2.60;;;1.52;;
22070;SDS011;11200;51.488;6.668;2023-02-27T12:38:54;3.53;;;1.55;;
22070;SDS011;11200;51.488;6.668;2023-02-27T12:41:25;2.78;;;1.50;;
22070;SDS011;11200;51.488;6.668;2023-02-27T12:49:15;3.78;;;1.83;;
22070;SDS011;11200;51.488;6.668;2023-02-27T12:57:20;1.98;;;1.38;;
22070;SDS011;11200;51.488;6.668;2023-02-27T13:10:46;2.63;;;1.67;;
22070;SDS011;11200;51.488;6.668;2023-02-27T13:13:30;2.17;;;1.60;;
22070;SDS011;11200;51.488;6.668;2023-02-27T13:21:27;3.08;;;1.65;;
22070;SDS011;11200;51.488;6.668;2023-02-27T13:26:41;2.58;;;1.70;;
22070;SDS011;11200;51.488;6.668;2023-02-27T13:29:10;2.15;;;1.65;;
22070;SDS011;11200;51.488;6.668;2023-02-27T13:37:06;2.83;;;1.80;;
22070;SDS011;11200;51.488;6.668;2023-02-27T13:39:36;3.40;;;1.85;;
22070;SDS011;11200;51.488;6.668;2023-02-27T13:44:50;2.55;;;1.80;;
22070;SDS011;11200;51.488;6.668;2023-02-27T13:49:58;2.92;;;1.60;;
22070;SDS011;11200;51.488;6.668;2023-02-27T13:52:29;2.60;;;1.65;;
22070;SDS011;11200;51.488;6.668;2023-02-27T13:54:59;2.20;;;1.90;;
22070;SDS011;11200;51.488;6.668;2023-02-27T13:57:34;3.58;;;1.95;;
22070;SDS011;11200;51.488;6.668;2023-02-27T14:00:06;2.17;;;1.70;;
22070;SDS011;11200;51.488;6.668;2023-02-27T14:05:55;2.67;;;1.60;;
22070;SDS011;11200;51.488;6.668;2023-02-27T14:08:28;2.55;;;1.90;;
22070;SDS011;11200;51.488;6.668;2023-02-27T14:16:48;2.20;;;1.73;;
22070;SDS011;11200;51.488;6.668;2023-02-27T14:19:01;3.08;;;1.33;;
22070;SDS011;11200;51.488;6.668;2023-02-27T14:24:54;2.67;;;1.90;;
22070;SDS011;11200;51.488;6.668;2023-02-27T14:27:23;3.70;;;1.80;;
22070;SDS011;11200;51.488;6.668;2023-02-27T14:29:53;4.47;;;1.90;;
22070;SDS011;11200;51.488;6.668;2023-02-27T14:32:22;2.55;;;1.80;;
22070;SDS011;11200;51.488;6.668;2023-02-27T14:34:49;2.95;;;1.80;;
22070;SDS011;11200;51.488;6.668;2023-02-27T14:37:18;2.38;;;1.60;;
22070;SDS011;11200;51.488;6.668;2023-02-27T14:39:48;4.35;;;1.67;;
22070;SDS011;11200;51.488;6.668;2023-02-27T14:45:13;3.10;;;1.80;;
22070;SDS011;11200;51.488;6.668;2023-02-27T14:47:41;3.05;;;1.70;;
22070;SDS011;11200;51.488;6.668;2023-02-27T14:52:56;2.85;;;1.80;;
22070;SDS011;11200;51.488;6.668;2023-02-27T14:55:30;2.50;;;1.67;;
22070;SDS011;11200;51.488;6.668;2023-02-27T15:00:35;2.83;;;1.63;;
22070;SDS011;11200;51.488;6.668;2023-02-27T15:05:48;3.25;;;2.25;;
22070;SDS011;11200;51.488;6.668;2023-02-27T15:08:21;3.25;;;2.00;;
22070;SDS011;11200;51.488;6.668;2023-02-27T15:10:51;2.10;;;1.90;;
22070;SDS011;11200;51.488;6.668;2023-02-27T15:13:20;4.68;;;2.00;;
22070;SDS011;11200;51.488;6.668;2023-02-27T15:18:54;4.35;;;1.92;;
22070;SDS011;11200;51.488;6.668;2023-02-27T15:21:23;3.33;;;1.90;;
22070;SDS011;11200;51.488;6.668;2023-02-27T15:23:54;4.07;;;2.10;;
22070;SDS011;11200;51.488;6.668;2023-02-27T15:26:21;3.65;;;2.13;;
22070;SDS011;11200;51.488;6.668;2023-02-27T15:28:48;3.78;;;2.00;;
22070;SDS011;11200;51.488;6.668;2023-02-27T15:31:21;3.50;;;2.10;;
22070;SDS011;11200;51.488;6.668;2023-02-27T15:33:50;3.80;;;2.13;;
22070;SDS011;11200;51.488;6.668;2023-02-27T15:36:34;3.40;;;2.22;;
22070;SDS011;11200;51.488;6.668;2023-02-27T15:41:39;2.63;;;2.05;;
22070;SDS011;11200;51.488;6.668;2023-02-27T15:44:17;3.35;;;2.20;;
22070;SDS011;11200;51.488;6.668;2023-02-27T15:46:47;2.25;;;2.05;;
22070;SDS011;11200;51.488;6.668;2023-02-27T15:49:14;3.60;;;2.25;;
22070;SDS011;11200;51.488;6.668;2023-02-27T15:51:46;3.63;;;2.05;;
22070;SDS011;11200;51.488;6.668;2023-02-27T15:54:19;4.28;;;2.00;;
22070;SDS011;11200;51.488;6.668;2023-02-27T15:56:45;2.25;;;1.85;;
22070;SDS011;11200;51.488;6.668;2023-02-27T15:59:12;3.60;;;2.00;;
22070;SDS011;11200;51.488;6.668;2023-02-27T16:01:41;2.58;;;1.90;;
22070;SDS011;11200;51.488;6.668;2023-02-27T16:04:13;4.45;;;2.42;;
22070;SDS011;11200;51.488;6.668;2023-02-27T16:06:46;3.03;;;2.05;;
22070;SDS011;11200;51.488;6.668;2023-02-27T16:09:34;2.50;;;1.80;;
22070;SDS011;11200;51.488;6.668;2023-02-27T16:12:35;2.78;;;1.98;;
22070;SDS011;11200;51.488;6.668;2023-02-27T16:15:35;3.13;;;2.25;;
22070;SDS011;11200;51.488;6.668;2023-02-27T16:20:42;3.00;;;2.10;;
22070;SDS011;11200;51.488;6.668;2023-02-27T16:23:27;3.60;;;1.88;;
22070;SDS011;11200;51.488;6.668;2023-02-27T16:28:55;2.28;;;1.73;;
22070;SDS011;11200;51.488;6.668;2023-02-27T16:31:30;3.75;;;2.22;;
22070;SDS011;11200;51.488;6.668;2023-02-27T16:33:58;3.53;;;1.92;;
22070;SDS011;11200;51.488;6.668;2023-02-27T16:36:26;1.88;;;1.75;;
22070;SDS011;11200;51.488;6.668;2023-02-27T16:38:56;2.60;;;1.73;;
22070;SDS011;11200;51.488;6.668;2023-02-27T16:41:22;3.08;;;2.00;;
22070;SDS011;11200;51.488;6.668;2023-02-27T16:43:49;3.50;;;1.90;;
22070;SDS011;11200;51.488;6.668;2023-02-27T16:46:17;3.00;;;1.90;;
22070;SDS011;11200;51.488;6.668;2023-02-27T16:48:50;2.85;;;2.00;;
22070;SDS011;11200;51.488;6.668;2023-02-27T16:51:23;2.33;;;1.80;;
22070;SDS011;11200;51.488;6.668;2023-02-27T16:53:50;2.17;;;1.70;;
22070;SDS011;11200;51.488;6.668;2023-02-27T16:56:17;3.42;;;1.80;;
22070;SDS011;11200;51.488;6.668;2023-02-27T16:58:43;4.22;;;2.00;;
22070;SDS011;11200;51.488;6.668;2023-02-27T17:01:10;4.25;;;2.20;;
22070;SDS011;11200;51.488;6.668;2023-02-27T17:03:38;3.30;;;1.90;;
22070;SDS011;11200;51.488;6.668;2023-02-27T17:06:04;3.80;;;2.10;;
22070;SDS011;11200;51.488;6.668;2023-02-27T17:08:31;4.57;;;2.00;;
22070;SDS011;11200;51.488;6.668;2023-02-27T17:10:57;3.10;;;2.13;;
22070;SDS011;11200;51.488;6.668;2023-02-27T17:13:23;3.35;;;2.13;;
22070;SDS011;11200;51.488;6.668;2023-02-27T17:15:49;2.85;;;2.00;;
22070;SDS011;11200;51.488;6.668;2023-02-27T17:18:15;2.53;;;1.80;;
22070;SDS011;11200;51.488;6.668;2023-02-27T17:20:41;3.05;;;1.92;;
22070;SDS011;11200;51.488;6.668;2023-02-27T17:23:08;3.53;;;2.20;;
22070;SDS011;11200;51.488;6.668;2023-02-27T17:25:34;2.45;;;1.88;;
22070;SDS011;11200;51.488;6.668;2023-02-27T17:28:00;3.28;;;1.70;;
22070;SDS011;11200;51.488;6.668;2023-02-27T17:30:25;3.85;;;2.13;;
22070;SDS011;11200;51.488;6.668;2023-02-27T17:32:51;4.57;;;2.15;;
22070;SDS011;11200;51.488;6.668;2023-02-27T17:35:17;3.20;;;2.17;;
22070;SDS011;11200;51.488;6.668;2023-02-27T17:37:42;2.75;;;2.13;;
22070;SDS011;11200;51.488;6.668;2023-02-27T17:40:08;2.30;;;2.03;;
22070;SDS011;11200;51.488;6.668;2023-02-27T17:42:36;2.92;;;2.10;;
22070;SDS011;11200;51.488;6.668;2023-02-27T17:45:03;3.38;;;2.00;;
22070;SDS011;11200;51.488;6.668;2023-02-27T17:47:31;2.97;;;2.17;;
22070;SDS011;11200;51.488;6.668;2023-02-27T17:49:57;4.13;;;2.10;;
22070;SDS011;11200;51.488;6.668;2023-02-27T17:52:23;4.38;;;2.03;;
22070;SDS011;11200;51.488;6.668;2023-02-27T17:54:48;2.70;;;2.00;;
22070;SDS011;11200;51.488;6.668;2023-02-27T17:57:14;2.58;;;1.88;;
22070;SDS011;11200;51.488;6.668;2023-02-27T17:59:40;3.97;;;2.08;;
22070;SDS011;11200;51.488;6.668;2023-02-27T18:02:09;5.00;;;2.40;;
22070;SDS011;11200;51.488;6.668;2023-02-27T18:04:36;4.10;;;2.10;;
22070;SDS011;11200;51.488;6.668;2023-02-27T18:07:01;4.35;;;2.30;;
22070;SDS011;11200;51.488;6.668;2023-02-27T18:09:27;3.47;;;2.38;;
22070;SDS011;11200;51.488;6.668;2023-02-27T18:11:53;3.17;;;2.10;;
22070;SDS011;11200;51.488;6.668;2023-02-27T18:14:18;2.95;;;2.38;;
22070;SDS011;11200;51.488;6.668;2023-02-27T18:16:44;3.22;;;2.35;;
22070;SDS011;11200;51.488;6.668;2023-02-27T18:19:10;3.25;;;2.13;;
22070;SDS011;11200;51.488;6.668;2023-02-27T18:21:36;3.63;;;2.17;;
22070;SDS011;11200;51.488;6.668;2023-02-27T18:24:01;3.38;;;2.30;;
22070;SDS011;11200;51.488;6.668;2023-02-27T18:26:28;4.20;;;2.28;;
22070;SDS011;11200;51.488;6.668;2023-02-27T18:28:59;2.58;;;2.20;;
22070;SDS011;11200;51.488;6.668;2023-02-27T18:31:31;4.68;;;2.42;;
22070;SDS011;11200;51.488;6.668;2023-02-27T18:34:05;3.22;;;2.22;;
22070;SDS011;11200;51.488;6.668;2023-02-27T18:36:31;4.47;;;2.40;;
22070;SDS011;11200;51.488;6.668;2023-02-27T18:38:57;4.35;;;2.40;;
22070;SDS011;11200;51.488;6.668;2023-02-27T18:41:24;3.38;;;2.65;;
22070;SDS011;11200;51.488;6.668;2023-02-27T18:43:50;3.25;;;2.30;;
22070;SDS011;11200;51.488;6.668;2023-02-27T18:46:15;3.92;;;2.42;;
22070;SDS011;11200;51.488;6.668;2023-02-27T18:48:43;5.05;;;2.50;;
22070;SDS011;11200;51.488;6.668;2023-02-27T18:51:09;4.32;;;2.55;;
22070;SDS011;11200;51.488;6.668;2023-02-27T18:53:38;4.28;;;2.55;;
22070;SDS011;11200;51.488;6.668;2023-02-27T18:56:05;3.55;;;2.45;;
22070;SDS011;11200;51.488;6.668;2023-02-27T18:58:32;4.28;;;2.80;;
22070;SDS011;11200;51.488;6.668;2023-02-27T19:00:58;3.53;;;2.65;;
22070;SDS011;11200;51.488;6.668;2023-02-27T19:03:25;4.65;;;2.90;;
22070;SDS011;11200;51.488;6.668;2023-02-27T19:05:52;4.38;;;2.60;;
22070;SDS011;11200;51.488;6.668;2023-02-27T19:08:18;4.05;;;2.67;;
22070;SDS011;11200;51.488;6.668;2023-02-27T19:10:44;5.15;;;2.70;;
22070;SDS011;11200;51.488;6.668;2023-02-27T19:13:09;5.05;;;2.90;;
22070;SDS011;11200;51.488;6.668;2023-02-27T19:15:38;3.55;;;2.92;;
22070;SDS011;11200;51.488;6.668;2023-02-27T19:18:04;4.20;;;2.95;;
22070;SDS011;11200;51.488;6.668;2023-02-27T19:20:30;4.07;;;3.03;;
22070;SDS011;11200;51.488;6.668;2023-02-27T19:22:56;4.82;;;3.42;;
22070;SDS011;11200;51.488;6.668;2023-02-27T19:25:23;6.10;;;3.42;;
22070;SDS011;11200;51.488;6.668;2023-02-27T19:27:52;3.95;;;3.05;;
22070;SDS011;11200;51.488;6.668;2023-02-27T19:30:19;3.65;;;2.65;;
22070;SDS011;11200;51.488;6.668;2023-02-27T19:32:45;4.05;;;3.35;;
22070;SDS011;11200;51.488;6.668;2023-02-27T19:35:10;3.58;;;3.00;;
22070;SDS011;11200;51.488;6.668;2023-02-27T19:37:39;3.53;;;2.92;;
22070;SDS011;11200;51.488;6.668;2023-02-27T19:40:05;4.03;;;3.00;;
22070;SDS011;11200;51.488;6.668;2023-02-27T19:42:32;4.65;;;3.20;;
22070;SDS011;11200;51.488;6.668;2023-02-27T19:44:58;4.35;;;3.42;;
22070;SDS011;11200;51.488;6.668;2023-02-27T19:47:23;5.00;;;3.40;;
22070;SDS011;11200;51.488;6.668;2023-02-27T19:49:49;4.30;;;3.28;;
22070;SDS011;11200;51.488;6.668;2023-02-27T19:52:15;4.07;;;3.50;;
22070;SDS011;11200;51.488;6.668;2023-02-27T19:54:41;6.90;;;3.63;;
22070;SDS011;11200;51.488;6.668;2023-02-27T19:57:06;5.53;;;3.58;;
22070;SDS011;11200;51.488;6.668;2023-02-27T19:59:32;4.75;;;3.72;;
22070;SDS011;11200;51.488;6.668;2023-02-27T20:01:58;5.03;;;3.45;;
22070;SDS011;11200;51.488;6.668;2023-02-27T20:04:23;4.60;;;3.50;;
22070;SDS011;11200;51.488;6.668;2023-02-27T20:06:49;6.97;;;4.20;;
22070;SDS011;11200;51.488;6.668;2023-02-27T20:09:17;5.35;;;3.83;;
22070;SDS011;11200;51.488;6.668;2023-02-27T20:11:44;6.32;;;3.70;;
22070;SDS011;11200;51.488;6.668;2023-02-27T20:14:12;5.57;;;4.00;;
22070;SDS011;11200;51.488;6.668;2023-02-27T20:16:39;5.78;;;4.00;;
22070;SDS011;11200;51.488;6.668;2023-02-27T20:19:06;5.18;;;3.47;;
22070;SDS011;11200;51.488;6.668;2023-02-27T20:21:34;5.90;;;3.92;;
22070;SDS011;11200;51.488;6.668;2023-02-27T20:24:00;4.40;;;3.40;;
22070;SDS011;11200;51.488;6.668;2023-02-27T20:26:36;4.47;;;3.60;;
22070;SDS011;11200;51.488;6.668;2023-02-27T20:29:09;5.05;;;3.70;;
22070;SDS011;11200;51.488;6.668;2023-02-27T20:31:37;4.40;;;3.40;;
22070;SDS011;11200;51.488;6.668;2023-02-27T20:34:04;6.00;;;3.92;;
22070;SDS011;11200;51.488;6.668;2023-02-27T20:36:31;5.32;;;3.60;;
22070;SDS011;11200;51.488;6.668;2023-02-27T20:38:58;5.22;;;3.72;;
22070;SDS011;11200;51.488;6.668;2023-02-27T20:41:24;4.55;;;3.40;;
22070;SDS011;11200;51.488;6.668;2023-02-27T20:43:50;5.20;;;3.90;;
22070;SDS011;11200;51.488;6.668;2023-02-27T20:46:17;3.63;;;3.30;;
22070;SDS011;11200;51.488;6.668;2023-02-27T20:48:48;4.88;;;3.53;;
22070;SDS011;11200;51.488;6.668;2023-02-27T20:51:16;5.38;;;3.35;;
22070;SDS011;11200;51.488;6.668;2023-02-27T20:53:44;5.25;;;3.60;;
22070;SDS011;11200;51.488;6.668;2023-02-27T20:56:12;6.03;;;3.50;;
22070;SDS011;11200;51.488;6.668;2023-02-27T20:58:38;4.35;;;3.45;;
22070;SDS011;11200;51.488;6.668;2023-02-27T21:01:08;5.32;;;3.67;;
22070;SDS011;11200;51.488;6.668;2023-02-27T21:03:39;5.05;;;3.50;;
22070;SDS011;11200;51.488;6.668;2023-02-27T21:06:06;4.28;;;3.40;;
22070;SDS011;11200;51.488;6.668;2023-02-27T21:08:34;4.30;;;3.25;;
22070;SDS011;11200;51.488;6.668;2023-02-27T21:11:11;4.45;;;3.25;;
22070;SDS011;11200;51.488;6.668;2023-02-27T21:13:39;3.95;;;3.50;;
22070;SDS011;11200;51.488;6.668;2023-02-27T21:16:06;4.80;;;3.45;;
22070;SDS011;11200;51.488;6.668;2023-02-27T21:18:33;3.88;;;3.30;;
22070;SDS011;11200;51.488;6.668;2023-02-27T21:21:04;4.43;;;3.60;;
22070;SDS011;11200;51.488;6.668;2023-02-27T21:23:31;4.57;;;3.13;;
22070;SDS011;11200;51.488;6.668;2023-02-27T21:25:58;6.03;;;3.72;;
22070;SDS011;11200;51.488;6.668;2023-02-27T21:28:24;5.35;;;3.60;;
22070;SDS011;11200;51.488;6.668;2023-02-27T21:30:50;4.18;;;3.63;;
22070;SDS011;11200;51.488;6.668;2023-02-27T21:33:21;4.70;;;3.83;;
22070;SDS011;11200;51.488;6.668;2023-02-27T21:35:47;6.40;;;4.18;;
22070;SDS011;11200;51.488;6.668;2023-02-27T21:38:13;5.70;;;3.88;;
22070;SDS011;11200;51.488;6.668;2023-02-27T21:40:38;5.63;;;3.90;;
22070;SDS011;11200;51.488;6.668;2023-02-27T21:43:04;5.63;;;4.28;;
22070;SDS011;11200;51.488;6.668;2023-02-27T21:45:29;4.93;;;3.83;;
22070;SDS011;11200;51.488;6.668;2023-02-27T21:47:55;6.72;;;4.05;;
22070;SDS011;11200;51.488;6.668;2023-02-27T21:50:21;5.03;;;3.90;;
22070;SDS011;11200;51.488;6.668;2023-02-27T21:52:47;6.38;;;4.50;;
22070;SDS011;11200;51.488;6.668;2023-02-27T21:55:12;7.13;;;4.05;;
22070;SDS011;11200;51.488;6.668;2023-02-27T21:57:39;4.78;;;3.80;;
22070;SDS011;11200;51.488;6.668;2023-02-27T22:00:05;5.88;;;3.63;;
22070;SDS011;11200;51.488;6.668;2023-02-27T22:02:35;5.03;;;3.78;;
22070;SDS011;11200;51.488;6.668;2023-02-27T22:05:02;4.80;;;3.88;;
22070;SDS011;11200;51.488;6.668;2023-02-27T22:07:28;5.22;;;3.72;;
22070;SDS011;11200;51.488;6.668;2023-02-27T22:09:54;5.75;;;4.18;;